createdAt,value
2022-11-05T00:00:25.708Z,7.7
2022-11-05T00:01:32.227Z,7.8
2022-11-05T00:02:38.770Z,7.8
2022-11-05T00:03:45.310Z,7.8
2022-11-05T00:04:51.876Z,7.8
2022-11-05T00:05:58.400Z,7.7
2022-11-05T00:07:04.936Z,7.6
2022-11-05T00:08:11.472Z,7.5
2022-11-05T00:09:18.050Z,7.5
2022-11-05T00:10:24.592Z,7.5
2022-11-05T00:11:31.087Z,7.5
2022-11-05T00:12:37.640Z,7.5
2022-11-05T00:13:44.165Z,7.5
2022-11-05T00:14:50.713Z,7.5
2022-11-05T00:15:57.240Z,7.4
2022-11-05T00:17:03.793Z,7.4
2022-11-05T00:18:10.329Z,7.4
2022-11-05T00:19:16.872Z,7.4
2022-11-05T00:20:23.442Z,7.3
2022-11-05T00:21:29.941Z,7.3
2022-11-05T00:22:36.496Z,7.3
2022-11-05T00:23:43.038Z,7.3
2022-11-05T00:24:49.567Z,7.3
2022-11-05T00:25:56.121Z,7.2
2022-11-05T00:27:02.645Z,7.2
2022-11-05T00:28:09.427Z,7.1
2022-11-05T00:29:16.200Z,7
2022-11-05T00:30:22.973Z,7
2022-11-05T00:31:29.747Z,6.9
2022-11-05T00:32:36.516Z,6.9
2022-11-05T00:33:43.305Z,6.8
2022-11-05T00:34:50.069Z,6.9
2022-11-05T00:35:56.854Z,6.8
2022-11-05T00:37:03.627Z,6.8
2022-11-05T00:38:10.393Z,6.7
2022-11-05T00:39:17.200Z,6.6
2022-11-05T00:40:23.979Z,6.6
2022-11-05T00:41:30.744Z,6.6
2022-11-05T00:44:48.895Z,6.5
2022-11-05T00:46:26.947Z,6.5
2022-11-05T00:47:33.475Z,6.4
2022-11-05T00:48:39.990Z,6.4
2022-11-05T00:49:46.569Z,6.4
2022-11-05T00:50:53.129Z,6.3
2022-11-05T00:51:59.608Z,6.2
2022-11-05T00:53:06.148Z,6.2
2022-11-05T00:54:12.690Z,6.2
2022-11-05T00:55:19.224Z,6.2
2022-11-05T00:56:25.768Z,6.2
2022-11-05T00:57:32.317Z,6.2
2022-11-05T00:58:38.844Z,6.1
2022-11-05T00:59:45.382Z,5.9
2022-11-05T01:00:51.944Z,5.9
2022-11-05T01:01:58.465Z,5.8
2022-11-05T01:03:05.003Z,5.8
2022-11-05T01:04:11.543Z,5.8
2022-11-05T01:05:18.071Z,5.7
2022-11-05T01:06:24.626Z,5.8
2022-11-05T01:07:31.233Z,5.8
2022-11-05T01:08:37.682Z,5.8
2022-11-05T01:09:44.227Z,5.9
2022-11-05T01:10:50.762Z,5.9
2022-11-05T01:11:57.299Z,6
2022-11-05T01:13:03.847Z,6
2022-11-05T01:14:10.617Z,6.1
2022-11-05T01:15:17.393Z,6.2
2022-11-05T01:16:24.224Z,6.1
2022-11-05T01:17:30.946Z,6.1
2022-11-05T01:18:37.717Z,6.1
2022-11-05T01:19:44.499Z,6.1
2022-11-05T01:20:51.279Z,6.1
2022-11-05T01:21:58.063Z,6.1
2022-11-05T01:23:04.830Z,6
2022-11-05T01:24:11.612Z,6.1
2022-11-05T01:25:18.397Z,6.1
2022-11-05T01:26:25.200Z,6.1
2022-11-05T01:27:31.974Z,6
2022-11-05T01:30:50.113Z,6
2022-11-05T01:32:28.367Z,5.9
2022-11-05T01:33:35.173Z,6
2022-11-05T01:34:41.921Z,6
2022-11-05T01:35:48.741Z,6
2022-11-05T01:36:55.445Z,6
2022-11-05T01:38:02.217Z,5.9
2022-11-05T01:39:08.997Z,5.9
2022-11-05T01:40:15.828Z,5.8
2022-11-05T01:41:22.549Z,5.7
2022-11-05T01:42:29.322Z,5.7
2022-11-05T01:43:36.100Z,5.7
2022-11-05T01:44:42.879Z,5.6
2022-11-05T01:45:49.656Z,5.6
2022-11-05T01:46:56.432Z,5.5
2022-11-05T01:48:03.205Z,5.5
2022-11-05T01:49:09.990Z,5.5
2022-11-05T01:50:16.775Z,5.5
2022-11-05T01:51:23.552Z,5.5
2022-11-05T01:52:30.337Z,5.4
2022-11-05T01:53:37.090Z,5.4
2022-11-05T01:54:43.860Z,5.3
2022-11-05T01:55:50.629Z,5.3
2022-11-05T01:56:57.406Z,5.2
2022-11-05T01:58:04.186Z,5.2
2022-11-05T01:59:10.962Z,5.1
2022-11-05T02:01:23.191Z,5.1
2022-11-05T02:02:30.446Z,5
2022-11-05T02:03:36.424Z,5
2022-11-05T02:04:42.836Z,5
2022-11-05T02:05:49.241Z,5
2022-11-05T02:06:55.685Z,5.1
2022-11-05T02:08:02.112Z,5.1
2022-11-05T02:09:08.531Z,5.1
2022-11-05T02:10:14.951Z,5.1
2022-11-05T02:11:21.368Z,5
2022-11-05T02:12:27.753Z,5
2022-11-05T02:13:34.168Z,5
2022-11-05T02:14:40.601Z,5
2022-11-05T02:15:46.995Z,5
2022-11-05T02:16:53.422Z,5
2022-11-05T02:17:59.829Z,5
2022-11-05T02:19:06.267Z,5.1
2022-11-05T02:20:12.684Z,5
2022-11-05T02:21:19.178Z,5
2022-11-05T02:22:25.531Z,4.9
2022-11-05T02:23:31.915Z,4.9
2022-11-05T02:24:38.335Z,4.8
2022-11-05T02:25:44.753Z,5
2022-11-05T02:26:51.189Z,5
2022-11-05T02:27:57.584Z,5.1
2022-11-05T02:29:04.017Z,5
2022-11-05T02:30:10.416Z,5.1
2022-11-05T02:31:16.982Z,5.1
2022-11-05T02:32:23.537Z,5.1
2022-11-05T02:33:30.051Z,4.9
2022-11-05T02:34:36.573Z,5
2022-11-05T02:35:43.147Z,5
2022-11-05T02:36:49.688Z,5.1
2022-11-05T02:37:56.191Z,5.2
2022-11-05T02:39:02.746Z,5.3
2022-11-05T02:40:09.288Z,5.4
2022-11-05T02:41:15.809Z,5.3
2022-11-05T02:42:22.353Z,5.2
2022-11-05T02:43:28.914Z,5.2
2022-11-05T02:44:35.423Z,5.2
2022-11-05T02:46:07.660Z,5.3
2022-11-05T02:47:14.434Z,5.2
2022-11-05T02:48:21.223Z,5.2
2022-11-05T02:49:28.001Z,5.2
2022-11-05T02:50:34.757Z,5.2
2022-11-05T02:51:41.547Z,5.3
2022-11-05T02:52:48.331Z,5.4
2022-11-05T02:53:55.115Z,5.5
2022-11-05T02:55:01.946Z,5.5
2022-11-05T02:56:08.673Z,5.5
2022-11-05T02:57:15.410Z,5.5
2022-11-05T02:58:22.236Z,5.5
2022-11-05T02:59:28.961Z,5.6
2022-11-05T03:02:47.145Z,5.5
2022-11-05T03:04:25.171Z,5.4
2022-11-05T03:05:31.702Z,5.5
2022-11-05T03:06:38.242Z,5.5
2022-11-05T03:07:44.777Z,5.6
2022-11-05T03:08:51.321Z,5.6
2022-11-05T03:09:57.860Z,5.6
2022-11-05T03:11:04.402Z,5.6
2022-11-05T03:12:10.932Z,5.6
2022-11-05T03:13:17.480Z,5.5
2022-11-05T03:14:24.015Z,5.5
2022-11-05T03:15:30.565Z,5.6
2022-11-05T03:16:37.090Z,5.5
2022-11-05T03:17:43.630Z,5.5
2022-11-05T03:18:50.169Z,5.4
2022-11-05T03:19:56.711Z,5.4
2022-11-05T03:21:03.251Z,5.3
2022-11-05T03:22:09.885Z,5.2
2022-11-05T03:23:16.338Z,5.1
2022-11-05T03:24:22.884Z,5.1
2022-11-05T03:25:29.403Z,5.1
2022-11-05T03:26:35.947Z,5.1
2022-11-05T03:27:42.493Z,5
2022-11-05T03:28:49.013Z,4.9
2022-11-05T03:29:55.548Z,4.9
2022-11-05T03:31:02.129Z,4.8
2022-11-05T03:32:08.876Z,4.8
2022-11-05T03:33:15.656Z,4.8
2022-11-05T03:34:22.426Z,4.8
2022-11-05T03:35:29.198Z,4.7
2022-11-05T03:36:35.973Z,4.7
2022-11-05T03:37:42.759Z,4.6
2022-11-05T03:38:49.580Z,4.6
2022-11-05T03:39:56.320Z,4.6
2022-11-05T03:41:03.085Z,4.5
2022-11-05T03:42:09.851Z,4.5
2022-11-05T03:43:16.617Z,4.5
2022-11-05T03:44:23.402Z,4.5
2022-11-05T03:45:30.173Z,4.5
2022-11-05T03:48:48.374Z,4.5
2022-11-05T03:50:26.283Z,4.4
2022-11-05T03:51:32.656Z,4.3
2022-11-05T03:52:39.074Z,4.4
2022-11-05T03:53:45.492Z,4.4
2022-11-05T03:54:51.951Z,4.4
2022-11-05T03:55:58.363Z,4.4
2022-11-05T03:57:04.808Z,4.4
2022-11-05T03:58:11.177Z,4.5
2022-11-05T03:59:17.622Z,4.5
2022-11-05T04:00:24.019Z,4.5
2022-11-05T04:01:30.426Z,4.5
2022-11-05T04:02:36.855Z,4.5
2022-11-05T04:03:43.269Z,4.5
2022-11-05T04:04:49.692Z,4.4
2022-11-05T04:05:56.124Z,4.4
2022-11-05T04:07:02.555Z,4.5
2022-11-05T04:08:08.950Z,4.5
2022-11-05T04:09:15.364Z,4.4
2022-11-05T04:10:21.795Z,4.4
2022-11-05T04:11:28.210Z,4.5
2022-11-05T04:12:34.633Z,4.6
2022-11-05T04:13:41.049Z,4.5
2022-11-05T04:14:47.464Z,4.5
2022-11-05T04:15:53.881Z,4.5
2022-11-05T04:17:00.365Z,4.4
2022-11-05T04:18:06.855Z,4.3
2022-11-05T04:19:13.396Z,4.3
2022-11-05T04:20:19.947Z,4.3
2022-11-05T04:21:26.471Z,4.3
2022-11-05T04:22:33.007Z,4.4
2022-11-05T04:23:39.556Z,4.5
2022-11-05T04:24:46.082Z,4.5
2022-11-05T04:25:52.624Z,4.6
2022-11-05T04:26:59.199Z,4.6
2022-11-05T04:28:05.734Z,4.7
2022-11-05T04:29:12.240Z,4.7
2022-11-05T04:30:18.844Z,4.8
2022-11-05T04:31:25.331Z,4.8
2022-11-05T04:32:58.461Z,4.8
2022-11-05T04:34:05.233Z,4.7
2022-11-05T04:35:12.014Z,4.7
2022-11-05T04:36:18.775Z,4.7
2022-11-05T04:37:25.608Z,4.8
2022-11-05T04:38:32.410Z,4.9
2022-11-05T04:39:39.102Z,4.9
2022-11-05T04:40:45.900Z,5
2022-11-05T04:41:52.645Z,5
2022-11-05T04:42:59.415Z,5
2022-11-05T04:44:06.221Z,5
2022-11-05T04:45:12.962Z,5.1
2022-11-05T04:46:19.744Z,5.1
2022-11-05T04:49:37.917Z,5.1
2022-11-05T04:51:16.302Z,5
2022-11-05T04:52:23.008Z,5
2022-11-05T04:53:29.782Z,5.1
2022-11-05T04:54:36.542Z,5.3
2022-11-05T04:55:43.321Z,5.3
2022-11-05T04:56:50.093Z,5.4
2022-11-05T04:57:56.865Z,5.4
2022-11-05T04:59:03.655Z,5.4
2022-11-05T05:00:10.433Z,5.4
2022-11-05T05:01:17.200Z,5.4
2022-11-05T05:02:24.015Z,5.4
2022-11-05T05:03:30.771Z,5.4
2022-11-05T05:04:37.525Z,5.3
2022-11-05T05:05:44.343Z,5.3
2022-11-05T05:06:51.088Z,5.2
2022-11-05T05:07:57.859Z,5.2
2022-11-05T05:09:04.628Z,5.3
2022-11-05T05:10:11.410Z,5.4
2022-11-05T05:11:18.197Z,5.4
2022-11-05T05:12:24.991Z,5.4
2022-11-05T05:13:31.755Z,5.5
2022-11-05T05:14:38.511Z,5.4
2022-11-05T05:15:45.302Z,5.5
2022-11-05T05:16:52.068Z,5.4
2022-11-05T05:17:58.842Z,5.3
2022-11-05T05:20:11.097Z,5.3
2022-11-05T05:21:17.059Z,5.2
2022-11-05T05:22:23.473Z,5.2
2022-11-05T05:23:29.898Z,5.1
2022-11-05T05:24:36.322Z,5.1
2022-11-05T05:25:42.744Z,5.1
2022-11-05T05:26:49.170Z,5.1
2022-11-05T05:27:55.606Z,5.1
2022-11-05T05:29:02.017Z,5.2
2022-11-05T05:30:08.425Z,5.2
2022-11-05T05:31:14.854Z,5.3
2022-11-05T05:32:21.267Z,5.5
2022-11-05T05:33:27.743Z,5.5
2022-11-05T05:35:40.534Z,5.6
2022-11-05T05:36:46.965Z,5.6
2022-11-05T05:37:53.405Z,5.6
2022-11-05T05:38:59.789Z,5.7
2022-11-05T05:40:06.215Z,5.7
2022-11-05T05:41:12.642Z,5.7
2022-11-05T05:42:19.067Z,5.7
2022-11-05T05:43:25.480Z,5.8
2022-11-05T05:44:31.908Z,5.8
2022-11-05T05:45:38.323Z,5.8
2022-11-05T05:46:44.772Z,5.8
2022-11-05T05:47:51.165Z,5.8
2022-11-05T05:48:57.729Z,5.7
2022-11-05T05:50:04.264Z,5.7
2022-11-05T05:51:10.797Z,5.7
2022-11-05T05:52:17.388Z,5.7
2022-11-05T05:53:23.907Z,5.5
2022-11-05T05:54:30.485Z,5.6
2022-11-05T05:55:36.959Z,5.6
2022-11-05T05:56:43.496Z,5.6
2022-11-05T05:57:50.061Z,5.6
2022-11-05T05:58:56.586Z,5.5
2022-11-05T06:00:03.124Z,5.4
2022-11-05T06:01:09.680Z,5.4
2022-11-05T06:02:16.215Z,5.4
2022-11-05T06:03:50.354Z,5.5
2022-11-05T06:04:57.046Z,5.4
2022-11-05T06:06:03.825Z,5.4
2022-11-05T06:07:10.610Z,5.3
2022-11-05T06:08:17.378Z,5.2
2022-11-05T06:09:24.154Z,5.1
2022-11-05T06:10:30.974Z,5.1
2022-11-05T06:11:37.757Z,5
2022-11-05T06:12:44.465Z,5
2022-11-05T06:13:51.245Z,5
2022-11-05T06:14:58.008Z,5
2022-11-05T06:16:04.804Z,5
2022-11-05T06:17:11.612Z,4.9
2022-11-05T06:20:29.738Z,4.9
2022-11-05T06:22:07.759Z,5.1
2022-11-05T06:23:14.293Z,5.2
2022-11-05T06:26:33.903Z,5.3
2022-11-05T06:27:40.444Z,5.3
2022-11-05T06:28:46.985Z,5.3
2022-11-05T06:29:53.555Z,5.4
2022-11-05T06:31:00.074Z,5.3
2022-11-05T06:32:06.665Z,5.3
2022-11-05T06:33:13.136Z,5.4
2022-11-05T06:34:19.721Z,5.4
2022-11-05T06:35:26.223Z,5.5
2022-11-05T06:36:32.833Z,5.5
2022-11-05T06:37:39.294Z,5.6
2022-11-05T06:38:45.865Z,5.6
2022-11-05T06:39:52.432Z,5.6
2022-11-05T06:40:58.910Z,5.6
2022-11-05T06:42:05.463Z,5.7
2022-11-05T06:43:11.992Z,5.7
2022-11-05T06:44:18.529Z,5.8
2022-11-05T06:45:25.066Z,5.8
2022-11-05T06:46:31.639Z,5.8
2022-11-05T06:47:38.139Z,5.9
2022-11-05T06:48:44.778Z,5.8
2022-11-05T06:49:51.472Z,5.8
2022-11-05T06:50:58.244Z,5.9
2022-11-05T06:52:05.037Z,6
2022-11-05T06:53:11.781Z,6.1
2022-11-05T06:54:18.559Z,6.1
2022-11-05T06:55:25.331Z,6.1
2022-11-05T06:56:32.118Z,6.1
2022-11-05T06:57:38.893Z,6.1
2022-11-05T06:58:45.712Z,6.1
2022-11-05T06:59:52.451Z,6.1
2022-11-05T07:00:59.246Z,6.1
2022-11-05T07:02:06.104Z,6.1
2022-11-05T07:03:12.774Z,6.2
2022-11-05T07:06:30.959Z,6.2
2022-11-05T07:08:08.848Z,6.3
2022-11-05T07:09:15.255Z,6.3
2022-11-05T07:10:21.746Z,6.3
2022-11-05T07:11:28.095Z,6.4
2022-11-05T07:12:34.553Z,6.4
2022-11-05T07:13:40.961Z,6.4
2022-11-05T07:15:53.783Z,6.4
2022-11-05T07:17:00.199Z,6.4
2022-11-05T07:18:06.619Z,6.4
2022-11-05T07:19:13.045Z,6.5
2022-11-05T07:20:19.443Z,6.5
2022-11-05T07:21:25.886Z,6.5
2022-11-05T07:22:32.361Z,6.6
2022-11-05T07:23:38.754Z,6.6
2022-11-05T07:24:45.148Z,6.6
2022-11-05T07:25:51.559Z,6.6
2022-11-05T07:26:57.987Z,6.5
2022-11-05T07:28:04.360Z,6.6
2022-11-05T07:29:10.781Z,6.6
2022-11-05T07:30:17.204Z,6.7
2022-11-05T07:31:23.619Z,6.7
2022-11-05T07:32:30.060Z,6.7
2022-11-05T07:33:36.491Z,6.8
2022-11-05T07:34:42.874Z,6.8
2022-11-05T07:35:49.490Z,6.8
2022-11-05T07:39:09.062Z,6.8
2022-11-05T07:40:15.607Z,6.8
2022-11-05T07:41:22.113Z,6.8
2022-11-05T07:42:28.730Z,6.8
2022-11-05T07:43:35.234Z,6.9
2022-11-05T07:44:41.718Z,6.8
2022-11-05T07:45:48.323Z,6.8
2022-11-05T07:46:54.821Z,6.8
2022-11-05T07:48:01.370Z,6.9
2022-11-05T07:49:07.918Z,6.9
2022-11-05T07:50:39.979Z,6.9
2022-11-05T07:51:46.767Z,7
2022-11-05T07:52:53.554Z,7.1
2022-11-05T07:54:00.295Z,7.1
2022-11-05T07:55:07.080Z,7.2
2022-11-05T07:56:13.891Z,7.2
2022-11-05T07:57:20.669Z,7.2
2022-11-05T07:58:27.433Z,7.2
2022-11-05T07:59:34.195Z,7.3
2022-11-05T08:00:40.947Z,7.2
2022-11-05T08:01:47.780Z,7.3
2022-11-05T08:02:54.494Z,7.3
2022-11-05T08:04:01.363Z,7.3
2022-11-05T08:07:19.472Z,7.3
2022-11-05T08:08:57.419Z,7.3
2022-11-05T08:10:03.788Z,7.3
2022-11-05T08:11:10.182Z,7.4
2022-11-05T08:12:16.612Z,7.3
2022-11-05T08:13:23.027Z,7.4
2022-11-05T08:14:29.450Z,7.5
2022-11-05T08:15:35.863Z,7.5
2022-11-05T08:16:42.355Z,7.5
2022-11-05T08:17:48.735Z,7.5
2022-11-05T08:18:55.149Z,7.5
2022-11-05T08:20:01.548Z,7.6
2022-11-05T08:21:07.971Z,7.6
2022-11-05T08:22:14.422Z,7.6
2022-11-05T08:23:20.817Z,7.6
2022-11-05T08:24:27.229Z,7.6
2022-11-05T08:25:33.660Z,7.6
2022-11-05T08:26:40.072Z,7.5
2022-11-05T08:27:46.545Z,7.5
2022-11-05T08:28:52.906Z,7.5
2022-11-05T08:29:59.335Z,7.5
2022-11-05T08:31:05.788Z,7.5
2022-11-05T08:32:12.163Z,7.5
2022-11-05T08:33:18.587Z,7.5
2022-11-05T08:34:25.041Z,7.5
2022-11-05T08:35:31.477Z,7.5
2022-11-05T08:36:37.977Z,7.5
2022-11-05T08:37:44.519Z,7.5
2022-11-05T08:38:51.164Z,7.5
2022-11-05T08:39:57.609Z,7.5
2022-11-05T08:41:04.251Z,7.5
2022-11-05T08:42:10.688Z,7.5
2022-11-05T08:43:17.208Z,7.5
2022-11-05T08:44:23.799Z,7.5
2022-11-05T08:45:30.295Z,7.5
2022-11-05T08:46:36.825Z,7.6
2022-11-05T08:47:43.362Z,7.6
2022-11-05T08:48:49.892Z,7.6
2022-11-05T08:49:56.437Z,7.6
2022-11-05T08:51:29.488Z,7.6
2022-11-05T08:52:36.218Z,7.6
2022-11-05T08:53:42.988Z,7.6
2022-11-05T08:54:49.771Z,7.7
2022-11-05T08:55:56.550Z,7.7
2022-11-05T08:57:03.347Z,7.8
2022-11-05T08:58:10.099Z,7.8
2022-11-05T08:59:16.863Z,7.9
2022-11-05T09:00:23.657Z,7.9
2022-11-05T09:01:30.414Z,8
2022-11-05T09:02:37.191Z,8
2022-11-05T09:03:43.971Z,8
2022-11-05T09:04:50.731Z,8
2022-11-05T09:08:08.904Z,8.1
2022-11-05T09:09:46.793Z,8
2022-11-05T09:10:53.211Z,8.1
2022-11-05T09:11:59.620Z,8.2
2022-11-05T09:13:06.066Z,8.3
2022-11-05T09:14:12.495Z,8.3
2022-11-05T09:15:18.878Z,8.3
2022-11-05T09:16:25.339Z,8.3
2022-11-05T09:17:31.751Z,8.3
2022-11-05T09:18:38.197Z,8.3
2022-11-05T09:19:44.545Z,8.4
2022-11-05T09:20:51.007Z,8.3
2022-11-05T09:21:57.426Z,8.4
2022-11-05T09:23:03.795Z,8.4
2022-11-05T09:24:10.224Z,8.5
2022-11-05T09:26:23.078Z,8.5
2022-11-05T09:27:29.487Z,8.5
2022-11-05T09:28:35.930Z,8.5
2022-11-05T09:29:42.294Z,8.6
2022-11-05T09:30:48.717Z,8.6
2022-11-05T09:33:01.559Z,8.6
2022-11-05T09:34:08.057Z,8.8
2022-11-05T09:35:14.402Z,8.9
2022-11-05T09:36:20.841Z,8.9
2022-11-05T09:37:27.391Z,8.8
2022-11-05T09:38:33.897Z,8.9
2022-11-05T09:39:40.427Z,8.9
2022-11-05T09:41:53.512Z,8.9
2022-11-05T09:43:00.071Z,9
2022-11-05T09:44:06.567Z,8.9
2022-11-05T09:45:13.106Z,8.9
2022-11-05T09:46:19.653Z,9
2022-11-05T09:47:26.171Z,9
2022-11-05T09:48:32.707Z,9.1
2022-11-05T09:49:39.241Z,9.1
2022-11-05T09:50:45.780Z,9.2
2022-11-05T09:52:18.298Z,9.2
2022-11-05T09:53:25.024Z,9.3
2022-11-05T09:54:31.793Z,9.4
2022-11-05T09:55:38.574Z,9.3
2022-11-05T09:56:45.340Z,9.3
2022-11-05T09:57:52.121Z,9.4
2022-11-05T09:58:58.941Z,9.4
2022-11-05T10:00:05.761Z,9.5
2022-11-05T10:01:12.436Z,9.6
2022-11-05T10:02:19.254Z,9.7
2022-11-05T10:03:25.981Z,9.8
2022-11-05T10:04:32.779Z,9.8
2022-11-05T10:05:39.530Z,9.9
2022-11-05T10:08:57.687Z,9.8
2022-11-05T10:10:35.695Z,10
2022-11-05T10:11:42.254Z,10.1
2022-11-05T10:12:48.829Z,10.2
2022-11-05T10:13:55.352Z,10.3
2022-11-05T10:15:01.909Z,10.3
2022-11-05T10:16:08.462Z,10.3
2022-11-05T10:17:15.037Z,10.2
2022-11-05T10:18:21.555Z,10.2
2022-11-05T10:19:28.120Z,10.2
2022-11-05T10:21:41.219Z,10.5
2022-11-05T10:22:47.765Z,10.9
2022-11-05T10:23:54.310Z,11.2
2022-11-05T10:25:00.871Z,11.8
2022-11-05T10:26:07.469Z,12.5
2022-11-05T10:27:14.087Z,13
2022-11-05T10:28:20.582Z,13.6
2022-11-05T10:29:27.096Z,13.9
2022-11-05T10:30:33.628Z,14.5
2022-11-05T10:31:40.192Z,14.5
2022-11-05T10:32:46.785Z,14.6
2022-11-05T10:33:53.399Z,14.6
2022-11-05T10:34:59.852Z,14.6
2022-11-05T10:36:06.422Z,14.3
2022-11-05T10:37:12.979Z,14.4
2022-11-05T10:38:19.754Z,14.4
2022-11-05T10:39:26.557Z,14
2022-11-05T10:40:33.326Z,13.5
2022-11-05T10:41:40.114Z,13.1
2022-11-05T10:42:46.909Z,12.7
2022-11-05T10:43:53.711Z,12.8
2022-11-05T10:45:00.522Z,12.9
2022-11-05T10:46:07.277Z,12.8
2022-11-05T10:47:14.094Z,12.7
2022-11-05T10:48:20.868Z,12.6
2022-11-05T10:49:27.665Z,12.9
2022-11-05T10:50:34.448Z,12.8
2022-11-05T10:51:41.232Z,13
2022-11-05T10:54:59.356Z,12.7
2022-11-05T10:56:38.082Z,13.3
2022-11-05T10:58:16.834Z,13.3
2022-11-05T10:59:24.093Z,14
2022-11-05T11:00:31.342Z,14.1
2022-11-05T11:02:10.103Z,13.8
2022-11-05T11:03:48.815Z,13.3
2022-11-05T11:05:27.547Z,13.4
2022-11-05T11:07:06.378Z,13.7
2022-11-05T11:08:45.041Z,14.2
2022-11-05T11:10:23.752Z,15.1
2022-11-05T11:12:02.491Z,15.6
2022-11-05T11:13:41.225Z,15.7
2022-11-05T11:15:52.086Z,16.1
2022-11-05T11:17:49.223Z,16.6
2022-11-05T11:21:04.897Z,16.9
2022-11-05T11:22:11.452Z,16.9
2022-11-05T11:23:18.085Z,16.8
2022-11-05T11:24:24.601Z,16.8
2022-11-05T11:25:31.176Z,16.3
2022-11-05T11:26:37.740Z,16
2022-11-05T11:27:44.285Z,15.3
2022-11-05T11:28:50.810Z,14.5
2022-11-05T11:29:57.342Z,14.2
2022-11-05T11:31:03.863Z,13.9
2022-11-05T11:32:10.425Z,13.7
2022-11-05T11:33:17.035Z,13.4
2022-11-05T11:34:23.517Z,13.4
2022-11-05T11:35:30.086Z,13.5
2022-11-05T11:36:36.624Z,13.7
2022-11-05T11:37:43.179Z,13.7
2022-11-05T11:38:49.736Z,13.5
2022-11-05T11:39:56.292Z,13.3
2022-11-05T11:41:02.847Z,13.2
2022-11-05T11:42:09.437Z,13
2022-11-05T11:43:15.973Z,13
2022-11-05T11:44:22.507Z,13.6
2022-11-05T11:45:29.060Z,14.3
2022-11-05T11:46:35.609Z,15.5
2022-11-05T11:47:42.163Z,16.1
2022-11-05T11:48:48.947Z,16.8
2022-11-05T11:49:55.752Z,17.5
2022-11-05T11:51:02.572Z,18.2
2022-11-05T11:52:09.364Z,18.5
2022-11-05T11:53:16.104Z,18.6
2022-11-05T11:54:22.922Z,18.2
2022-11-05T11:55:29.692Z,17.6
2022-11-05T11:56:36.503Z,17.1
2022-11-05T11:57:43.262Z,17.1
2022-11-05T11:58:50.131Z,16.6
2022-11-05T11:59:56.857Z,16.4
2022-11-05T12:01:03.668Z,16.5
2022-11-05T12:02:10.429Z,16
2022-11-05T12:05:28.572Z,16.1
2022-11-05T12:06:35.871Z,15.6
2022-11-05T12:07:43.105Z,15.4
2022-11-05T12:09:21.836Z,15.2
2022-11-05T12:11:00.605Z,14.9
2022-11-05T12:12:39.286Z,15
2022-11-05T12:14:18.018Z,15.3
2022-11-05T12:15:56.816Z,15.3
2022-11-05T12:17:35.538Z,15.4
2022-11-05T12:19:14.215Z,15.5
2022-11-05T12:20:52.949Z,15.1
2022-11-05T12:22:31.678Z,15
2022-11-05T12:23:38.938Z,15
2022-11-05T12:26:39.727Z,15
2022-11-05T12:29:55.404Z,14.9
2022-11-05T12:31:01.996Z,16
2022-11-05T12:32:08.528Z,16.5
2022-11-05T12:33:15.063Z,16.6
2022-11-05T12:34:21.607Z,16.2
2022-11-05T12:35:28.192Z,15.9
2022-11-05T12:36:34.716Z,15.6
2022-11-05T12:37:41.289Z,15.6
2022-11-05T12:38:47.881Z,15.3
2022-11-05T12:39:54.365Z,15
2022-11-05T12:41:00.959Z,14.7
2022-11-05T12:42:07.489Z,14.8
2022-11-05T12:43:14.029Z,14.8
2022-11-05T12:44:20.575Z,14.9
2022-11-05T12:45:27.152Z,15.1
2022-11-05T12:46:33.705Z,15.4
2022-11-05T12:47:40.227Z,16.1
2022-11-05T12:48:46.775Z,17.4
2022-11-05T12:49:53.340Z,17.8
2022-11-05T12:50:59.883Z,17.9
2022-11-05T12:52:06.494Z,17.6
2022-11-05T12:53:12.986Z,17.2
2022-11-05T12:54:19.549Z,16.7
2022-11-05T12:55:26.096Z,16
2022-11-05T12:56:32.635Z,15.7
2022-11-05T12:57:39.432Z,15.3
2022-11-05T12:58:46.266Z,15.1
2022-11-05T12:59:53.048Z,14.9
2022-11-05T13:00:59.795Z,14.6
2022-11-05T13:02:06.600Z,14.2
2022-11-05T13:03:13.395Z,14.2
2022-11-05T13:04:20.197Z,14.2
2022-11-05T13:05:26.955Z,13.9
2022-11-05T13:06:33.820Z,13.9
2022-11-05T13:07:40.545Z,13.8
2022-11-05T13:08:47.329Z,13.8
2022-11-05T13:09:54.130Z,13.8
2022-11-05T13:11:00.919Z,13.7
2022-11-05T13:12:08.268Z,13.7
2022-11-05T13:13:46.961Z,13.7
2022-11-05T13:15:25.692Z,13.7
2022-11-05T13:17:04.454Z,13.7
2022-11-05T13:18:43.180Z,13.7
2022-11-05T13:20:21.929Z,13.7
2022-11-05T13:22:00.638Z,13.6
2022-11-05T13:23:39.369Z,13.7
2022-11-05T13:25:18.111Z,13.7
2022-11-05T13:26:56.877Z,13.5
2022-11-05T13:28:35.593Z,13.5
2022-11-05T13:30:14.319Z,13.6
2022-11-05T13:31:53.063Z,13.6
2022-11-05T13:36:01.070Z,13.6
2022-11-05T13:37:09.439Z,13.5
2022-11-05T13:39:16.752Z,13.5
2022-11-05T13:40:23.310Z,13.6
2022-11-05T13:41:29.903Z,13.6
2022-11-05T13:42:36.437Z,13.5
2022-11-05T13:43:43.029Z,13.6
2022-11-05T13:44:49.536Z,13.5
2022-11-05T13:45:56.105Z,13.4
2022-11-05T13:47:02.626Z,13.4
2022-11-05T13:48:09.205Z,13.5
2022-11-05T13:49:15.735Z,13.5
2022-11-05T13:50:22.374Z,13.5
2022-11-05T13:51:28.894Z,13.5
2022-11-05T13:52:35.409Z,13.5
2022-11-05T13:53:42.014Z,13.6
2022-11-05T13:54:48.565Z,13.6
2022-11-05T13:55:55.123Z,13.7
2022-11-05T13:57:01.692Z,13.6
2022-11-05T13:58:08.188Z,13.6
2022-11-05T13:59:14.752Z,13.6
2022-11-05T14:00:21.322Z,13.7
2022-11-05T14:01:27.842Z,13.7
2022-11-05T14:02:34.380Z,13.7
2022-11-05T14:03:40.959Z,13.6
2022-11-05T14:04:47.527Z,13.5
2022-11-05T14:05:54.070Z,13.5
2022-11-05T14:07:00.837Z,13.4
2022-11-05T14:08:07.631Z,13.5
2022-11-05T14:09:14.426Z,13.5
2022-11-05T14:10:21.215Z,13.5
2022-11-05T14:11:28.015Z,13.6
2022-11-05T14:12:34.808Z,13.5
2022-11-05T14:13:41.583Z,13.5
2022-11-05T14:14:48.385Z,13.5
2022-11-05T14:15:55.169Z,13.6
2022-11-05T14:17:01.965Z,13.6
2022-11-05T14:18:08.817Z,13.6
2022-11-05T14:19:15.543Z,13.5
2022-11-05T14:20:22.366Z,13.5
2022-11-05T14:23:40.449Z,13.4
2022-11-05T14:25:19.182Z,13.3
2022-11-05T14:26:57.924Z,13.1
2022-11-05T14:28:05.194Z,13.1
2022-11-05T14:29:12.452Z,13.2
2022-11-05T14:30:51.184Z,13
2022-11-05T14:32:29.967Z,12.9
2022-11-05T14:34:08.663Z,12.9
2022-11-05T14:35:47.452Z,12.8
2022-11-05T14:37:26.129Z,12.8
2022-11-05T14:39:04.861Z,12.7
2022-11-05T14:40:43.628Z,12.7
2022-11-05T14:42:22.372Z,12.5
2022-11-05T14:44:33.233Z,12.4
2022-11-05T14:46:30.352Z,12.3
2022-11-05T14:49:47.769Z,12.3
2022-11-05T14:53:03.419Z,12.3
2022-11-05T14:54:10.000Z,12.3
2022-11-05T14:55:16.562Z,12.2
2022-11-05T14:56:23.076Z,12.2
2022-11-05T14:57:29.630Z,12.2
2022-11-05T14:58:36.217Z,12.3
2022-11-05T14:59:42.728Z,12.2
2022-11-05T15:00:49.316Z,12.3
2022-11-05T15:01:55.844Z,12.3
2022-11-05T15:03:02.384Z,12.2
2022-11-05T15:04:08.939Z,12.2
2022-11-05T15:05:15.521Z,12.1
2022-11-05T15:06:22.044Z,12.1
2022-11-05T15:07:28.598Z,11.9
2022-11-05T15:08:35.148Z,11.9
2022-11-05T15:09:41.709Z,11.9
2022-11-05T15:10:48.259Z,11.8
2022-11-05T15:11:54.816Z,11.8
2022-11-05T15:13:01.379Z,11.8
2022-11-05T15:14:07.919Z,11.8
2022-11-05T15:15:14.473Z,11.7
2022-11-05T15:16:21.106Z,11.7
2022-11-05T15:17:27.579Z,11.7
2022-11-05T15:18:34.159Z,11.7
2022-11-05T15:19:40.695Z,11.6
2022-11-05T15:20:47.486Z,11.6
2022-11-05T15:21:54.279Z,11.6
2022-11-05T15:23:01.081Z,11.5
2022-11-05T15:24:07.857Z,11.5
2022-11-05T15:25:14.654Z,11.5
2022-11-05T15:26:21.441Z,11.5
2022-11-05T15:27:28.289Z,11.4
2022-11-05T15:28:35.079Z,11.4
2022-11-05T15:29:41.855Z,11.4
2022-11-05T15:30:48.610Z,11.4
2022-11-05T15:31:55.432Z,11.4
2022-11-05T15:33:02.196Z,11.4
2022-11-05T15:34:08.989Z,11.3
2022-11-05T15:37:27.131Z,11.3
2022-11-05T15:39:05.838Z,11.2
2022-11-05T15:40:44.596Z,11.1
2022-11-05T15:41:51.901Z,11.1
2022-11-05T15:42:59.113Z,11.1
2022-11-05T15:44:37.851Z,11.1
2022-11-05T15:46:16.612Z,11.1
2022-11-05T15:47:55.374Z,11
2022-11-05T15:49:34.087Z,11
2022-11-05T15:51:12.802Z,11
2022-11-05T15:52:51.529Z,10.9
2022-11-05T15:54:30.264Z,10.9
2022-11-05T15:56:08.969Z,10.9
2022-11-05T15:58:19.849Z,10.9
2022-11-05T16:00:16.995Z,10.8
2022-11-05T16:03:32.635Z,10.8
2022-11-05T16:04:39.186Z,10.7
2022-11-05T16:05:45.776Z,10.6
2022-11-05T16:06:52.311Z,10.6
2022-11-05T16:07:58.842Z,10.7
2022-11-05T16:09:05.408Z,10.7
2022-11-05T16:10:11.949Z,10.7
2022-11-05T16:11:18.532Z,10.7
2022-11-05T16:12:25.063Z,10.6
2022-11-05T16:13:31.594Z,10.6
2022-11-05T16:14:38.168Z,10.6
2022-11-05T16:15:44.696Z,10.6
2022-11-05T16:16:51.253Z,10.6
2022-11-05T16:17:57.800Z,10.6
2022-11-05T16:19:04.350Z,10.5
2022-11-05T16:20:10.897Z,10.5
2022-11-05T16:21:17.450Z,10.5
2022-11-05T16:22:24.014Z,10.5
2022-11-05T16:23:30.606Z,10.4
2022-11-05T16:24:37.109Z,10.4
2022-11-05T16:25:43.679Z,10.4
2022-11-05T16:26:50.209Z,10.3
2022-11-05T16:27:56.776Z,10.3
2022-11-05T16:29:03.380Z,10.3
2022-11-05T16:30:09.871Z,10.2
2022-11-05T16:31:16.677Z,10.2
2022-11-05T16:32:23.443Z,10.2
2022-11-05T16:33:30.236Z,10.2
2022-11-05T16:34:37.075Z,10.1
2022-11-05T16:35:43.811Z,10.1
2022-11-05T16:36:50.613Z,10.1
2022-11-05T16:37:57.416Z,10.1
2022-11-05T16:39:04.184Z,10.1
2022-11-05T16:40:10.977Z,10.1
2022-11-05T16:41:17.811Z,10.1
2022-11-05T16:42:24.563Z,10.1
2022-11-05T16:43:31.364Z,10.1
2022-11-05T16:44:38.150Z,10.1
2022-11-05T16:47:56.266Z,10.1
2022-11-05T16:49:03.546Z,10.1
2022-11-05T16:50:10.787Z,10.1
2022-11-05T16:51:49.537Z,10.1
2022-11-05T16:53:28.290Z,10.1
2022-11-05T16:55:06.995Z,10.1
2022-11-05T16:56:45.772Z,10.1